createdAt,value
2023-05-09T00:01:51.942Z,101275.81
2023-05-09T00:04:18.202Z,101261.28
2023-05-09T00:06:44.435Z,101291.78
2023-05-09T00:09:10.643Z,101292.84
2023-05-09T00:11:36.853Z,101303.94
2023-05-09T00:14:03.064Z,101334.63
2023-05-09T00:16:29.309Z,101302.97
2023-05-09T00:18:55.542Z,101328.56
2023-05-09T00:21:21.755Z,101316.53
2023-05-09T00:23:47.949Z,101316.94
2023-05-09T00:26:14.190Z,101336.91
2023-05-09T00:28:40.407Z,101334.78
2023-05-09T00:31:06.613Z,101289.91
2023-05-09T00:33:32.827Z,101338.00
2023-05-09T00:35:59.112Z,101367.22
2023-05-09T00:38:25.378Z,101354.78
2023-05-09T00:40:51.605Z,101366.34
2023-05-09T00:43:17.829Z,101338.81
2023-05-09T00:45:44.874Z,101326.75
2023-05-09T00:48:11.100Z,101350.25
2023-05-09T00:50:37.317Z,101361.34
2023-05-09T00:53:03.964Z,101347.31
2023-05-09T00:55:30.186Z,101331.66
2023-05-09T00:57:56.394Z,101340.25
2023-05-09T01:00:22.610Z,101351.16
2023-05-09T01:02:53.257Z,101331.47
2023-05-09T01:05:19.849Z,101341.53
2023-05-09T01:07:49.646Z,101325.63
2023-05-09T01:10:18.903Z,101261.91
2023-05-09T01:12:45.091Z,101233.94
2023-05-09T01:15:29.913Z,101251.09
2023-05-09T01:18:14.673Z,101295.31
2023-05-09T01:20:44.976Z,101286.53
2023-05-09T01:23:23.205Z,101275.44
2023-05-09T01:26:04.905Z,101289.59
2023-05-09T01:28:46.339Z,101258.19
2023-05-09T01:31:12.579Z,101255.56
2023-05-09T01:33:39.068Z,101269.88
2023-05-09T01:36:06.177Z,101263.16
2023-05-09T01:38:32.633Z,101282.25
2023-05-09T01:40:58.901Z,101284.41
2023-05-09T01:43:25.413Z,101312.66
2023-05-09T01:45:51.634Z,101355.88
2023-05-09T01:48:17.835Z,101389.34
2023-05-09T01:50:44.294Z,101417.47
2023-05-09T01:53:10.636Z,101405.88
2023-05-09T01:55:36.848Z,101355.41
2023-05-09T01:58:03.520Z,101338.53
2023-05-09T02:00:29.792Z,101360.56
2023-05-09T02:02:56.244Z,101425.41
2023-05-09T02:05:22.825Z,101406.88
2023-05-09T02:07:49.029Z,101400.13
2023-05-09T02:10:15.440Z,101336.13
2023-05-09T02:12:41.718Z,101351.56
2023-05-09T02:15:08.139Z,101330.00
2023-05-09T02:17:34.351Z,101312.84
2023-05-09T02:20:00.575Z,101366.44
2023-05-09T02:22:26.774Z,101355.06
2023-05-09T02:24:52.992Z,101312.50
2023-05-09T02:27:19.197Z,101273.81
2023-05-09T02:29:49.028Z,101277.97
2023-05-09T02:32:15.954Z,101278.31
2023-05-09T02:34:42.471Z,101283.25
2023-05-09T02:37:08.799Z,101273.63
2023-05-09T02:39:35.029Z,101297.41
2023-05-09T02:42:10.996Z,101266.81
2023-05-09T02:44:37.252Z,101235.16
2023-05-09T02:47:03.502Z,101260.16
2023-05-09T02:49:32.474Z,101290.31
2023-05-09T02:51:59.018Z,101324.94
2023-05-09T02:54:25.248Z,101317.50
2023-05-09T02:56:51.453Z,101315.75
2023-05-09T02:59:18.111Z,101295.38
2023-05-09T03:01:44.349Z,101299.72
2023-05-09T03:04:10.620Z,101301.75
2023-05-09T03:06:36.841Z,101299.72
2023-05-09T03:09:03.049Z,101279.75
2023-05-09T03:11:29.249Z,101262.88
2023-05-09T03:13:55.457Z,101257.59
2023-05-09T03:16:21.780Z,101282.63
2023-05-09T03:18:48.060Z,101312.25
2023-05-09T03:21:14.266Z,101298.13
2023-05-09T03:23:40.547Z,101274.84
2023-05-09T03:26:06.757Z,101290.53
2023-05-09T03:28:32.966Z,101275.59
2023-05-09T03:30:59.236Z,101297.25
2023-05-09T03:33:25.615Z,101298.19
2023-05-09T03:35:51.931Z,101276.00
2023-05-09T03:38:18.155Z,101285.44
2023-05-09T03:40:44.388Z,101295.03
2023-05-09T03:43:10.608Z,101280.31
2023-05-09T03:45:36.819Z,101270.50
2023-05-09T03:48:03.163Z,101257.78
2023-05-09T03:50:29.534Z,101233.78
2023-05-09T03:52:55.753Z,101242.13
2023-05-09T03:55:21.987Z,101258.56
2023-05-09T03:57:48.255Z,101259.06
2023-05-09T04:00:14.598Z,101238.03
2023-05-09T04:02:41.566Z,101181.81
2023-05-09T04:05:07.916Z,101165.44
2023-05-09T04:07:34.130Z,101150.22
2023-05-09T04:10:00.384Z,101148.63
2023-05-09T04:12:26.964Z,101132.78
2023-05-09T04:14:53.180Z,101112.09
2023-05-09T04:17:19.378Z,101105.41
2023-05-09T04:19:45.596Z,101106.63
2023-05-09T04:22:11.828Z,101099.28
2023-05-09T04:24:38.035Z,101063.16
2023-05-09T04:27:04.525Z,101055.34
2023-05-09T04:29:31.009Z,101038.91
2023-05-09T04:31:57.321Z,101026.34
2023-05-09T04:34:23.716Z,100959.31
2023-05-09T04:36:49.931Z,100960.00
2023-05-09T04:39:16.165Z,100899.38
2023-05-09T04:41:51.278Z,100864.53
2023-05-09T04:44:17.504Z,100893.91
2023-05-09T04:46:46.141Z,100853.00
2023-05-09T04:49:13.152Z,100798.09
2023-05-09T04:51:39.361Z,100704.88
2023-05-09T04:54:05.637Z,100692.47
2023-05-09T04:56:31.835Z,100617.97
2023-05-09T04:58:58.050Z,100585.19
2023-05-09T05:01:24.299Z,100417.88
2023-05-09T05:03:50.564Z,100329.94
2023-05-09T05:06:16.812Z,100386.88
2023-05-09T05:08:43.114Z,100240.03
2023-05-09T05:11:09.351Z,100273.53
2023-05-09T05:13:35.585Z,100211.25
2023-05-09T05:16:01.838Z,100151.50
2023-05-09T05:18:28.073Z,100217.72
2023-05-09T05:20:54.281Z,100220.44
2023-05-09T05:23:20.607Z,100003.75
2023-05-09T05:25:46.829Z,100006.56
2023-05-09T05:28:13.044Z,99987.69
2023-05-09T05:30:40.224Z,99868.25
2023-05-09T05:33:06.477Z,99733.09
2023-05-09T05:35:32.823Z,99602.00
2023-05-09T05:38:00.278Z,99499.16
2023-05-09T05:40:26.506Z,99495.72
2023-05-09T05:42:52.723Z,99436.28
2023-05-09T05:45:18.966Z,99315.28
2023-05-09T05:47:45.236Z,99427.38
2023-05-09T05:50:12.124Z,99400.31
2023-05-09T05:52:38.919Z,99370.38
2023-05-09T05:55:05.287Z,99242.84
2023-05-09T05:57:31.729Z,99271.00
2023-05-09T05:59:57.948Z,99376.94
2023-05-09T06:02:24.309Z,99498.91
2023-05-09T06:04:50.588Z,99505.13
2023-05-09T06:07:16.831Z,99569.66
2023-05-09T06:09:43.053Z,99526.06
2023-05-09T06:12:09.354Z,99548.84
2023-05-09T06:14:38.909Z,99558.56
2023-05-09T06:17:05.125Z,99514.44
2023-05-09T06:19:31.461Z,99444.94
2023-05-09T06:22:01.171Z,99330.75
2023-05-09T06:24:35.620Z,99380.94
2023-05-09T06:27:04.205Z,99315.78
2023-05-09T06:29:30.472Z,99239.47
2023-05-09T06:31:56.762Z,99271.53
2023-05-09T06:34:23.169Z,99325.94
2023-05-09T06:36:49.395Z,99253.50
2023-05-09T06:39:15.602Z,99302.31
2023-05-09T06:41:41.806Z,99353.53
2023-05-09T06:44:08.195Z,99417.97
2023-05-09T06:46:34.492Z,99283.91
2023-05-09T06:49:00.730Z,99287.22
2023-05-09T06:51:27.261Z,99334.72
2023-05-09T06:53:53.500Z,99297.28
2023-05-09T06:56:20.127Z,99395.19
2023-05-09T06:58:46.485Z,99460.38
2023-05-09T07:01:12.761Z,99308.63
2023-05-09T07:03:38.993Z,99464.34
2023-05-09T07:06:05.624Z,99267.09
2023-05-09T07:08:31.839Z,99258.38
2023-05-09T07:10:58.060Z,99265.28
2023-05-09T07:13:24.366Z,99286.88
2023-05-09T07:15:51.547Z,99329.78
2023-05-09T07:18:18.807Z,99270.56
2023-05-09T07:20:45.088Z,99265.00
2023-05-09T07:23:12.662Z,99188.34
2023-05-09T07:25:38.944Z,99136.25
2023-05-09T07:28:06.432Z,99188.47
2023-05-09T07:30:32.674Z,99291.44
2023-05-09T07:32:58.926Z,99087.91
2023-05-09T07:38:05.494Z,99110.59
2023-05-09T07:40:32.012Z,99194.88
2023-05-09T07:42:58.733Z,99014.81
2023-05-09T07:45:24.952Z,99002.78
2023-05-09T07:47:51.340Z,99019.41
2023-05-09T07:50:20.080Z,99151.72
2023-05-09T07:52:48.673Z,98933.13
2023-05-09T07:55:15.033Z,98755.13
2023-05-09T07:57:41.453Z,98903.81
2023-05-09T08:00:07.993Z,98947.91
2023-05-09T08:02:34.326Z,99149.75
2023-05-09T08:05:00.596Z,98833.09
2023-05-09T08:07:28.023Z,98936.91
2023-05-09T08:09:55.527Z,98980.78
2023-05-09T08:15:02.042Z,98943.63
2023-05-09T08:17:28.295Z,98863.25
2023-05-09T08:19:54.591Z,98725.38
2023-05-09T08:22:21.667Z,98843.13
2023-05-09T08:24:50.053Z,98936.56
2023-05-09T08:27:16.275Z,98841.03
2023-05-09T08:29:42.533Z,98944.91
2023-05-09T08:32:08.783Z,99015.34
2023-05-09T08:34:35.060Z,98854.84
2023-05-09T08:37:01.596Z,98332.03
2023-05-09T08:39:27.808Z,98566.56
2023-05-09T08:41:55.975Z,98478.34
2023-05-09T08:44:22.188Z,98544.38
2023-05-09T08:46:48.403Z,98638.06
2023-05-09T08:49:14.678Z,98616.75
2023-05-09T08:51:40.894Z,98633.41
2023-05-09T08:54:07.099Z,98347.38
2023-05-09T08:56:33.652Z,98123.75
2023-05-09T08:58:59.876Z,98442.72
2023-05-09T09:01:26.120Z,98433.28
2023-05-09T09:03:52.522Z,98113.53
2023-05-09T09:06:18.730Z,98491.66
2023-05-09T09:08:44.965Z,98217.84
2023-05-09T09:11:11.783Z,98061.88
2023-05-09T09:13:38.065Z,98188.94
2023-05-09T09:16:04.448Z,98076.72
2023-05-09T09:18:30.988Z,97777.91
2023-05-09T09:20:57.801Z,98090.00
2023-05-09T09:23:24.481Z,98003.59
2023-05-09T09:25:59.493Z,98189.25
2023-05-09T09:28:26.279Z,98416.28
2023-05-09T09:30:52.478Z,98495.00
2023-05-09T09:33:19.233Z,98453.84
2023-05-09T09:35:45.444Z,98384.91
2023-05-09T09:38:11.663Z,98202.53
2023-05-09T09:40:37.858Z,98363.13
2023-05-09T09:43:04.066Z,98304.53
2023-05-09T09:45:30.273Z,98014.50
2023-05-09T09:47:56.528Z,98204.34
2023-05-09T09:50:22.762Z,97883.47
2023-05-09T09:52:52.673Z,98145.38
2023-05-09T09:55:19.116Z,97993.00
2023-05-09T09:57:45.571Z,97989.56
2023-05-09T10:00:12.846Z,98079.72
2023-05-09T10:02:48.843Z,98285.47
2023-05-09T10:05:18.538Z,98022.06
2023-05-09T10:07:44.760Z,98140.09
2023-05-09T10:10:10.956Z,97871.41
2023-05-09T10:12:37.189Z,98253.38
2023-05-09T10:15:03.513Z,98105.53
2023-05-09T10:17:29.984Z,98013.06
2023-05-09T10:19:56.298Z,97886.53
2023-05-09T10:22:22.510Z,97978.50
2023-05-09T10:24:56.999Z,97922.88
2023-05-09T10:27:23.987Z,97911.91
2023-05-09T10:29:51.988Z,97949.41
2023-05-09T10:32:20.177Z,98168.78
2023-05-09T10:34:47.709Z,97872.19
2023-05-09T10:37:13.936Z,97905.44
2023-05-09T10:39:40.678Z,98257.91
2023-05-09T10:42:06.974Z,98248.44
2023-05-09T10:44:33.183Z,97968.66
2023-05-09T10:46:59.469Z,97701.66
2023-05-09T10:49:25.768Z,97921.25
2023-05-09T10:51:51.990Z,97936.16
2023-05-09T10:54:30.119Z,97902.31
2023-05-09T10:56:57.173Z,98036.72
2023-05-09T10:59:32.502Z,97920.31
2023-05-09T11:01:58.768Z,97652.59
2023-05-09T11:04:24.992Z,97811.25
2023-05-09T11:06:51.937Z,98000.38
2023-05-09T11:09:24.582Z,97967.63
2023-05-09T11:11:51.180Z,97958.16
2023-05-09T11:14:32.857Z,97939.63
2023-05-09T11:16:59.595Z,97782.31
2023-05-09T11:19:44.632Z,97752.84
2023-05-09T11:22:14.528Z,97819.78
2023-05-09T11:24:44.229Z,97756.97
2023-05-09T11:27:25.971Z,97856.47
2023-05-09T11:29:52.133Z,97737.31
2023-05-09T11:32:18.552Z,97763.16
2023-05-09T11:34:44.849Z,97751.44
2023-05-09T11:37:11.612Z,97697.88
2023-05-09T11:39:56.747Z,97663.53
2023-05-09T11:42:23.334Z,97748.38
2023-05-09T11:44:49.558Z,97406.81
2023-05-09T11:47:16.384Z,97575.88
2023-05-09T11:49:43.009Z,97573.53
2023-05-09T11:52:09.219Z,97622.63
2023-05-09T11:54:38.591Z,97833.16
2023-05-09T11:57:04.926Z,97446.00
2023-05-09T11:59:31.154Z,97560.47
2023-05-09T12:01:57.376Z,97869.66
2023-05-09T12:04:23.616Z,97830.50
2023-05-09T12:06:49.858Z,97599.47
2023-05-09T12:09:16.074Z,97618.94
2023-05-09T12:11:51.618Z,97345.53
2023-05-09T12:14:30.442Z,97353.78
2023-05-09T12:16:56.709Z,97495.88
2023-05-09T12:19:23.510Z,97917.44
2023-05-09T12:21:49.720Z,97177.19
2023-05-09T12:24:20.162Z,97445.81
2023-05-09T12:26:46.513Z,97337.94
2023-05-09T12:29:12.754Z,97299.38
2023-05-09T12:31:39.010Z,97549.22
2023-05-09T12:34:05.309Z,97631.63
2023-05-09T12:36:34.310Z,97318.44
2023-05-09T12:39:00.539Z,97318.06
2023-05-09T12:43:55.893Z,97125.25
2023-05-09T12:46:22.560Z,97189.06
2023-05-09T12:48:49.179Z,97252.50
2023-05-09T12:51:19.175Z,97355.13
2023-05-09T12:53:45.390Z,97361.06
2023-05-09T12:56:20.987Z,97811.41
2023-05-09T12:58:50.625Z,97728.44
2023-05-09T13:01:17.003Z,97741.69
2023-05-09T13:03:43.237Z,97620.59
2023-05-09T13:06:12.889Z,97608.63
2023-05-09T13:08:39.134Z,97041.53
2023-05-09T13:11:15.576Z,97216.56
2023-05-09T13:13:42.707Z,97495.78
2023-05-09T13:16:10.731Z,97478.56
2023-05-09T13:18:37.818Z,97642.31
2023-05-09T13:21:04.027Z,97653.22
2023-05-09T13:23:30.253Z,97520.03
2023-05-09T13:25:56.479Z,97799.47
2023-05-09T13:28:22.688Z,97705.22
2023-05-09T13:30:48.996Z,97741.94
2023-05-09T13:33:25.119Z,97670.38
2023-05-09T13:35:52.729Z,97845.66
2023-05-09T13:38:18.971Z,97420.16
2023-05-09T13:40:45.177Z,97325.22
2023-05-09T13:43:11.406Z,97450.03
2023-05-09T13:45:37.636Z,97744.66
2023-05-09T13:48:04.094Z,97960.66
2023-05-09T13:50:30.328Z,97578.25
2023-05-09T13:52:56.542Z,97595.97
2023-05-09T13:55:22.733Z,97799.13
2023-05-09T13:57:49.346Z,97712.13
2023-05-09T14:00:15.947Z,97749.19
2023-05-09T14:02:42.341Z,97754.47
2023-05-09T14:05:08.752Z,97822.97
2023-05-09T14:07:34.976Z,98016.81
2023-05-09T14:10:15.908Z,97877.47
2023-05-09T14:12:42.268Z,97967.59
2023-05-09T14:15:08.611Z,97910.00
2023-05-09T14:17:34.921Z,98187.31
2023-05-09T14:20:01.202Z,98055.00
2023-05-09T14:22:27.454Z,98067.22
2023-05-09T14:24:53.667Z,98224.19
2023-05-09T14:27:19.876Z,98332.28
2023-05-09T14:29:47.402Z,98129.28
2023-05-09T14:32:13.609Z,98264.03
2023-05-09T14:34:39.822Z,98319.72
2023-05-09T14:37:06.032Z,98285.09
2023-05-09T14:39:32.242Z,98357.78
2023-05-09T14:41:58.472Z,98112.84
2023-05-09T14:44:24.676Z,98117.75
2023-05-09T14:46:50.920Z,98344.84
2023-05-09T14:49:17.147Z,98238.19
2023-05-09T14:51:43.374Z,98143.50
2023-05-09T14:54:09.581Z,98188.81
2023-05-09T14:56:35.792Z,98056.09
2023-05-09T14:59:01.992Z,98216.09
2023-05-09T15:01:28.253Z,98329.69
2023-05-09T15:03:54.520Z,98074.09
2023-05-09T15:06:20.738Z,98341.47
2023-05-09T15:08:46.938Z,98230.50
2023-05-09T15:11:13.164Z,98298.03
2023-05-09T15:13:39.359Z,97755.63
2023-05-09T15:16:05.584Z,97910.00
2023-05-09T15:18:31.803Z,97929.22
2023-05-09T15:20:58.035Z,98153.19
2023-05-09T15:23:24.270Z,98240.91
2023-05-09T15:25:50.535Z,97984.72
2023-05-09T15:28:16.748Z,98152.91
2023-05-09T15:30:43.002Z,98238.66
2023-05-09T15:33:09.317Z,97959.06
2023-05-09T15:35:36.599Z,98188.78
2023-05-09T15:38:02.816Z,98228.94
2023-05-09T15:40:29.034Z,98408.44
2023-05-09T15:42:55.236Z,98454.66
2023-05-09T15:45:21.460Z,98308.13
2023-05-09T15:47:47.752Z,98439.88
2023-05-09T15:50:14.248Z,98232.38
2023-05-09T15:52:40.736Z,98099.97
2023-05-09T15:55:07.333Z,98232.78
2023-05-09T15:57:33.608Z,98282.81
2023-05-09T15:59:59.814Z,98398.66
2023-05-09T16:02:26.132Z,98390.44
2023-05-09T16:04:52.516Z,98473.91
2023-05-09T16:07:18.761Z,98528.28
2023-05-09T16:09:44.960Z,98371.91
2023-05-09T16:12:11.167Z,98393.19
2023-05-09T16:14:37.386Z,98269.50
2023-05-09T16:17:03.734Z,98406.34
2023-05-09T16:19:29.942Z,98328.09
2023-05-09T16:21:56.153Z,98463.75
2023-05-09T16:24:22.349Z,98427.03
2023-05-09T16:26:48.554Z,98478.78
2023-05-09T16:29:14.756Z,98506.34
2023-05-09T16:31:41.081Z,98356.50
2023-05-09T16:34:07.382Z,98392.06
2023-05-09T16:36:33.627Z,98396.13
2023-05-09T16:38:59.840Z,98266.22
2023-05-09T16:41:26.044Z,98351.72
2023-05-09T16:43:52.260Z,98531.81
2023-05-09T16:46:18.523Z,98587.19
2023-05-09T16:48:44.739Z,98644.19
2023-05-09T16:51:10.945Z,98563.13
2023-05-09T16:53:37.151Z,98487.50
2023-05-09T16:56:03.844Z,98533.09
2023-05-09T16:58:30.116Z,98556.44
2023-05-09T17:00:56.362Z,98547.38
2023-05-09T17:03:22.582Z,98514.94
2023-05-09T17:05:48.792Z,98536.94
2023-05-09T17:08:14.997Z,98652.81
2023-05-09T17:10:42.167Z,98544.66
2023-05-09T17:13:08.903Z,98562.97
2023-05-09T17:15:35.244Z,98542.53
2023-05-09T17:18:01.818Z,98612.88
2023-05-09T17:20:28.050Z,98668.91
2023-05-09T17:22:54.256Z,98680.78
2023-05-09T17:25:20.457Z,98696.03
2023-05-09T17:27:46.666Z,98760.53
2023-05-09T17:30:13.204Z,98720.00
2023-05-09T17:32:39.535Z,98599.72
2023-05-09T17:35:05.922Z,98537.09
2023-05-09T17:37:32.147Z,98604.38
2023-05-09T17:39:58.345Z,98633.28
2023-05-09T17:42:24.550Z,98562.31
2023-05-09T17:44:50.753Z,98724.66
2023-05-09T17:47:16.965Z,98721.56
2023-05-09T17:49:43.776Z,98646.78
2023-05-09T17:52:09.984Z,98628.31
2023-05-09T17:54:36.443Z,98595.94
2023-05-09T17:57:02.686Z,98612.34
2023-05-09T17:59:28.895Z,98704.03
2023-05-09T18:01:55.234Z,98728.53
2023-05-09T18:04:21.460Z,98669.47
2023-05-09T18:06:48.605Z,98800.84
2023-05-09T18:09:14.804Z,98746.09
2023-05-09T18:11:41.051Z,98782.75
2023-05-09T18:14:07.266Z,98846.16
2023-05-09T18:16:33.997Z,98876.50
2023-05-09T18:19:00.265Z,98873.00
2023-05-09T18:21:26.478Z,98968.31
2023-05-09T18:23:52.900Z,98981.09
2023-05-09T18:26:19.123Z,99001.84
2023-05-09T18:28:45.365Z,99041.69
2023-05-09T18:31:11.743Z,99010.53
2023-05-09T18:33:38.109Z,99038.00
2023-05-09T18:36:04.933Z,98998.69
2023-05-09T18:38:31.146Z,99049.66
2023-05-09T18:40:57.356Z,99042.75
2023-05-09T18:43:23.566Z,99092.59
2023-05-09T18:45:49.781Z,99166.13
2023-05-09T18:48:15.998Z,99093.22
2023-05-09T18:50:42.214Z,99140.09
2023-05-09T18:53:08.428Z,99092.16
2023-05-09T18:55:34.659Z,99192.28
2023-05-09T18:58:00.882Z,99148.19
2023-05-09T19:00:27.876Z,99155.16
2023-05-09T19:02:54.152Z,99161.97
2023-05-09T19:05:20.402Z,99240.72
2023-05-09T19:07:46.659Z,99234.06
2023-05-09T19:10:13.146Z,99153.91
2023-05-09T19:12:39.584Z,99208.22
2023-05-09T19:15:06.053Z,99284.44
2023-05-09T19:17:32.298Z,99300.69
2023-05-09T19:19:58.524Z,99251.50
2023-05-09T19:22:24.730Z,99152.53
2023-05-09T19:24:50.939Z,99181.63
2023-05-09T19:27:17.510Z,99187.81
2023-05-09T19:29:43.712Z,99281.63
2023-05-09T19:32:09.924Z,99320.72
2023-05-09T19:34:36.136Z,99301.88
2023-05-09T19:37:02.891Z,99284.72
2023-05-09T19:39:29.129Z,99241.13
2023-05-09T19:41:55.372Z,99230.44
2023-05-09T19:44:21.590Z,99254.88
2023-05-09T19:46:48.164Z,99256.88
2023-05-09T19:49:15.400Z,99359.25
2023-05-09T19:51:42.214Z,99331.66
2023-05-09T19:54:08.421Z,99377.84
2023-05-09T19:56:34.642Z,99434.44
2023-05-09T19:59:00.830Z,99463.84
2023-05-09T20:01:27.071Z,99483.63
2023-05-09T20:03:53.368Z,99500.13
2023-05-09T20:06:19.695Z,99444.31
2023-05-09T20:08:45.911Z,99435.63
2023-05-09T20:11:12.515Z,99394.56
2023-05-09T20:13:38.727Z,99388.72
2023-05-09T20:16:05.006Z,99439.94
2023-05-09T20:18:31.214Z,99487.13
2023-05-09T20:20:57.468Z,99480.69
2023-05-09T20:23:23.666Z,99466.59
2023-05-09T20:25:49.889Z,99518.94
2023-05-09T20:28:16.087Z,99475.13
2023-05-09T20:30:42.289Z,99540.25
2023-05-09T20:33:08.600Z,99569.25
2023-05-09T20:35:34.877Z,99605.22
2023-05-09T20:38:01.114Z,99621.22
2023-05-09T20:40:27.322Z,99574.28
2023-05-09T20:42:53.531Z,99553.69
2023-05-09T20:45:19.825Z,99620.84
2023-05-09T20:47:46.068Z,99733.00
2023-05-09T20:50:12.309Z,99665.81
2023-05-09T20:52:38.530Z,99696.22
2023-05-09T20:55:04.968Z,99658.75
2023-05-09T20:57:31.192Z,99691.16
2023-05-09T20:59:57.411Z,99701.72
2023-05-09T21:02:23.700Z,99677.94
2023-05-09T21:04:49.954Z,99677.75
2023-05-09T21:07:16.181Z,99686.75
2023-05-09T21:09:42.373Z,99741.88
2023-05-09T21:12:11.060Z,99739.44
2023-05-09T21:14:37.463Z,99756.25
2023-05-09T21:17:03.681Z,99798.59
2023-05-09T21:19:29.940Z,99830.59
2023-05-09T21:21:56.260Z,99796.66
2023-05-09T21:24:22.470Z,99776.50
2023-05-09T21:26:48.684Z,99799.41
2023-05-09T21:29:14.890Z,99832.50
2023-05-09T21:31:41.296Z,99839.56
2023-05-09T21:34:07.559Z,99903.22
2023-05-09T21:36:33.772Z,99942.50
2023-05-09T21:38:59.980Z,99925.16
2023-05-09T21:41:26.203Z,99953.88
2023-05-09T21:43:52.415Z,99943.34
2023-05-09T21:46:18.712Z,99928.19
2023-05-09T21:48:44.997Z,99980.22
2023-05-09T21:51:11.218Z,99977.06
2023-05-09T21:53:37.414Z,100001.63
2023-05-09T21:56:03.709Z,99966.84
2023-05-09T21:58:30.046Z,99943.47
2023-05-09T22:00:56.256Z,99954.47
2023-05-09T22:03:22.555Z,99972.09
2023-05-09T22:05:48.867Z,100050.03
2023-05-09T22:08:15.076Z,100047.66
2023-05-09T22:10:41.295Z,100033.47
2023-05-09T22:13:08.440Z,100023.25
2023-05-09T22:15:34.671Z,99998.00
2023-05-09T22:18:01.038Z,100005.50
2023-05-09T22:20:27.310Z,100058.19
2023-05-09T22:22:53.517Z,100070.25
2023-05-09T22:25:19.736Z,100098.84
2023-05-09T22:27:45.946Z,100057.91
2023-05-09T22:30:12.334Z,100071.56
2023-05-09T22:32:39.017Z,100036.69
2023-05-09T22:35:05.480Z,100064.25
2023-05-09T22:37:31.697Z,100104.38
2023-05-09T22:39:57.916Z,100123.47
2023-05-09T22:42:24.126Z,100075.00
2023-05-09T22:44:50.347Z,100076.31
2023-05-09T22:47:16.561Z,100125.09
2023-05-09T22:49:44.566Z,100144.72
2023-05-09T22:52:11.999Z,100107.25
2023-05-09T22:54:38.218Z,100096.28
2023-05-09T22:57:04.436Z,100107.25
2023-05-09T22:59:30.652Z,100089.44
2023-05-09T23:01:56.865Z,100079.53
2023-05-09T23:04:23.082Z,100109.16
2023-05-09T23:06:49.320Z,100116.72
2023-05-09T23:09:15.519Z,100106.78
2023-05-09T23:11:41.721Z,100093.94
2023-05-09T23:14:07.959Z,100085.88
2023-05-09T23:16:34.174Z,100226.16
2023-05-09T23:19:00.396Z,100200.00
2023-05-09T23:21:26.616Z,100159.94
2023-05-09T23:23:52.834Z,100144.78
2023-05-09T23:26:19.036Z,100137.19
2023-05-09T23:28:45.261Z,100132.69
2023-05-09T23:31:11.487Z,100097.91
2023-05-09T23:33:37.724Z,100119.13
2023-05-09T23:36:04.025Z,100133.25
2023-05-09T23:38:30.230Z,100122.78
2023-05-09T23:40:56.432Z,100124.34
2023-05-09T23:43:22.648Z,100130.41
2023-05-09T23:45:48.928Z,100169.63
2023-05-09T23:48:15.136Z,100167.81
2023-05-09T23:50:41.346Z,100166.00
2023-05-09T23:53:07.560Z,100202.34
2023-05-09T23:55:33.770Z,100228.50
2023-05-09T23:57:59.983Z,100203.94
